createdAt,value
2023-02-06T00:01:48.305Z,52.40
2023-02-06T00:04:15.961Z,52.40
2023-02-06T00:06:43.752Z,52.50
2023-02-06T00:09:11.753Z,52.30
2023-02-06T00:11:39.097Z,52.30
2023-02-06T00:14:07.169Z,52.20
2023-02-06T00:16:35.753Z,52.20
2023-02-06T00:19:05.270Z,52.30
2023-02-06T00:21:33.065Z,52.20
2023-02-06T00:24:05.036Z,52.10
2023-02-06T00:26:32.468Z,52.10
2023-02-06T00:28:59.958Z,52.40
2023-02-06T00:31:27.416Z,52.50
2023-02-06T00:33:54.892Z,52.20
2023-02-06T00:36:22.220Z,52.30
2023-02-06T00:38:49.587Z,52.20
2023-02-06T00:41:26.387Z,52.10
2023-02-06T00:43:53.799Z,52.10
2023-02-06T00:46:21.312Z,52.00
2023-02-06T00:48:48.645Z,51.80
2023-02-06T00:51:16.202Z,51.70
2023-02-06T00:53:43.658Z,51.60
2023-02-06T00:56:13.098Z,51.50
2023-02-06T00:58:40.424Z,51.50
2023-02-06T01:01:08.056Z,51.50
2023-02-06T01:03:37.845Z,51.30
2023-02-06T01:06:06.271Z,51.30
2023-02-06T01:08:35.747Z,51.50
2023-02-06T01:11:20.768Z,51.60
2023-02-06T01:13:48.703Z,51.30
2023-02-06T01:16:19.019Z,51.30
2023-02-06T01:18:46.498Z,51.10
2023-02-06T01:21:20.630Z,51.10
2023-02-06T01:23:49.699Z,50.50
2023-02-06T01:26:21.524Z,51.10
2023-02-06T01:28:49.071Z,51.10
2023-02-06T01:31:27.979Z,51.40
2023-02-06T01:33:56.885Z,51.00
2023-02-06T01:36:27.578Z,51.10
2023-02-06T01:38:55.316Z,51.10
2023-02-06T01:41:23.866Z,51.10
2023-02-06T01:44:11.525Z,51.10
2023-02-06T01:46:42.680Z,51.10
2023-02-06T01:49:17.083Z,51.30
2023-02-06T01:51:49.491Z,51.20
2023-02-06T01:54:17.287Z,51.20
2023-02-06T01:56:49.707Z,51.20
2023-02-06T01:59:17.517Z,51.00
2023-02-06T02:01:45.319Z,51.10
2023-02-06T02:04:20.121Z,51.20
2023-02-06T02:07:13.554Z,51.20
2023-02-06T02:09:41.399Z,51.20
2023-02-06T02:12:13.548Z,51.40
2023-02-06T02:14:44.382Z,51.30
2023-02-06T02:17:17.993Z,51.30
2023-02-06T02:20:06.269Z,51.20
2023-02-06T02:22:51.403Z,51.30
2023-02-06T02:25:42.658Z,51.40
2023-02-06T02:28:42.434Z,51.50
2023-02-06T02:31:33.569Z,51.60
2023-02-06T02:34:11.916Z,51.40
2023-02-06T02:37:02.670Z,51.60
2023-02-06T02:40:08.068Z,51.60
2023-02-06T02:43:02.072Z,51.50
2023-02-06T02:45:47.542Z,51.70
2023-02-06T02:48:30.695Z,51.70
2023-02-06T02:50:59.902Z,51.80
2023-02-06T02:53:27.796Z,51.90
2023-02-06T02:55:55.656Z,51.70
2023-02-06T02:58:31.420Z,51.60
2023-02-06T03:01:04.543Z,51.50
2023-02-06T03:03:34.328Z,51.70
2023-02-06T03:06:15.474Z,51.70
2023-02-06T03:08:52.554Z,51.70
2023-02-06T03:11:21.651Z,51.60
2023-02-06T03:14:06.223Z,51.60
2023-02-06T03:16:46.269Z,51.40
2023-02-06T03:19:19.033Z,51.60
2023-02-06T03:21:48.975Z,51.60
2023-02-06T03:24:29.176Z,51.70
2023-02-06T03:27:03.138Z,51.70
2023-02-06T03:29:35.450Z,51.90
2023-02-06T03:32:11.178Z,51.80
2023-02-06T03:34:51.102Z,51.90
2023-02-06T03:37:18.649Z,52.00
2023-02-06T03:39:46.259Z,52.00
2023-02-06T03:42:19.694Z,52.10
2023-02-06T03:44:51.601Z,52.00
2023-02-06T03:47:21.283Z,52.00
2023-02-06T03:49:51.058Z,52.00
2023-02-06T03:52:23.392Z,52.20
2023-02-06T03:54:59.816Z,52.10
2023-02-06T03:57:30.953Z,52.00
2023-02-06T03:59:58.545Z,52.00
2023-02-06T04:02:26.901Z,52.00
2023-02-06T04:04:54.391Z,52.10
2023-02-06T04:07:31.309Z,52.20
2023-02-06T04:09:58.844Z,52.10
2023-02-06T04:12:26.725Z,52.20
2023-02-06T04:14:54.301Z,52.20
2023-02-06T04:17:38.752Z,52.20
2023-02-06T04:20:11.496Z,52.20
2023-02-06T04:22:40.107Z,52.10
2023-02-06T04:25:07.967Z,52.00
2023-02-06T04:27:36.523Z,52.00
2023-02-06T04:30:05.416Z,51.90
2023-02-06T04:32:33.090Z,52.00
2023-02-06T04:35:02.521Z,52.00
2023-02-06T04:37:32.364Z,52.10
2023-02-06T04:39:59.817Z,52.10
2023-02-06T04:42:27.395Z,52.00
2023-02-06T04:44:55.031Z,52.00
2023-02-06T04:47:22.488Z,51.90
2023-02-06T04:49:49.938Z,51.90
2023-02-06T04:52:17.372Z,52.50
2023-02-06T04:54:47.514Z,52.10
2023-02-06T04:57:15.155Z,52.00
2023-02-06T04:59:45.514Z,52.10
2023-02-06T05:02:12.917Z,52.30
2023-02-06T05:04:40.221Z,51.90
2023-02-06T05:07:07.679Z,52.10
2023-02-06T05:09:37.419Z,52.20
2023-02-06T05:12:05.179Z,52.30
2023-02-06T05:14:33.001Z,52.20
2023-02-06T05:17:03.560Z,52.10
2023-02-06T05:19:31.094Z,52.00
2023-02-06T05:21:58.477Z,52.00
2023-02-06T05:24:28.486Z,52.00
2023-02-06T05:26:57.953Z,51.90
2023-02-06T05:29:26.060Z,52.10
2023-02-06T05:31:56.240Z,52.10
2023-02-06T05:34:23.760Z,52.00
2023-02-06T05:36:51.159Z,51.90
2023-02-06T05:39:18.604Z,51.90
2023-02-06T05:41:46.118Z,51.90
2023-02-06T05:44:13.605Z,51.90
2023-02-06T05:46:41.256Z,52.00
2023-02-06T05:49:08.746Z,51.90
2023-02-06T05:51:36.274Z,52.00
2023-02-06T05:54:12.454Z,51.90
2023-02-06T05:56:39.860Z,52.00
2023-02-06T05:59:07.494Z,52.10
2023-02-06T06:01:34.977Z,52.20
2023-02-06T06:04:02.862Z,52.40
2023-02-06T06:06:32.342Z,52.60
2023-02-06T06:09:01.389Z,52.70
2023-02-06T06:11:34.708Z,52.70
2023-02-06T06:14:02.426Z,52.90
2023-02-06T06:16:29.823Z,53.10
2023-02-06T06:19:03.214Z,53.00
2023-02-06T06:21:31.030Z,53.10
2023-02-06T06:24:00.323Z,53.10
2023-02-06T06:26:28.000Z,53.10
2023-02-06T06:28:56.552Z,53.10
2023-02-06T06:31:24.095Z,53.20
2023-02-06T06:33:54.286Z,53.30
2023-02-06T06:36:24.090Z,53.20
2023-02-06T06:38:51.428Z,53.00
2023-02-06T06:41:19.946Z,53.10
2023-02-06T06:43:48.127Z,53.10
2023-02-06T06:46:16.654Z,53.10
2023-02-06T06:48:44.248Z,53.10
2023-02-06T06:51:11.625Z,53.00
2023-02-06T06:53:40.198Z,53.00
2023-02-06T06:56:12.403Z,53.10
2023-02-06T06:58:40.875Z,53.00
2023-02-06T07:01:09.085Z,53.00
2023-02-06T07:03:36.873Z,53.00
2023-02-06T07:06:05.392Z,53.20
2023-02-06T07:08:33.026Z,53.20
2023-02-06T07:11:04.810Z,53.30
2023-02-06T07:13:32.224Z,53.30
2023-02-06T07:16:20.300Z,53.30
2023-02-06T07:18:48.120Z,53.00
2023-02-06T07:21:16.207Z,53.00
2023-02-06T07:23:43.870Z,53.00
2023-02-06T07:26:22.159Z,52.90
2023-02-06T07:28:50.133Z,53.00
2023-02-06T07:31:17.931Z,53.20
2023-02-06T07:33:45.968Z,53.30
2023-02-06T07:36:15.767Z,53.40
2023-02-06T07:38:45.062Z,53.50
2023-02-06T07:41:21.709Z,53.60
2023-02-06T07:43:58.270Z,53.50
2023-02-06T07:46:26.622Z,53.50
2023-02-06T07:48:59.556Z,53.60
2023-02-06T07:51:27.036Z,53.50
2023-02-06T07:53:54.998Z,53.60
2023-02-06T07:56:25.556Z,53.50
2023-02-06T07:58:54.677Z,53.60
2023-02-06T08:01:27.823Z,53.60
2023-02-06T08:03:56.234Z,53.60
2023-02-06T08:06:31.421Z,53.40
2023-02-06T08:09:11.149Z,53.30
2023-02-06T08:11:39.395Z,54.00
2023-02-06T08:14:09.967Z,53.30
2023-02-06T08:16:37.712Z,53.20
2023-02-06T08:19:07.060Z,53.30
2023-02-06T08:21:40.373Z,53.40
2023-02-06T08:24:11.177Z,53.30
2023-02-06T08:26:50.191Z,53.20
2023-02-06T08:29:17.737Z,53.10
2023-02-06T08:31:45.580Z,53.00
2023-02-06T08:34:16.432Z,52.80
2023-02-06T08:36:44.710Z,52.80
2023-02-06T08:39:19.020Z,52.80
2023-02-06T08:41:50.957Z,52.40
2023-02-06T08:44:21.926Z,52.30
2023-02-06T08:47:04.718Z,52.20
2023-02-06T08:49:39.640Z,52.40
2023-02-06T08:52:10.364Z,52.40
2023-02-06T08:54:38.964Z,52.50
2023-02-06T08:57:10.035Z,52.30
2023-02-06T08:59:37.517Z,51.90
2023-02-06T09:02:06.575Z,52.00
2023-02-06T09:04:37.932Z,52.20
2023-02-06T09:07:15.163Z,52.40
2023-02-06T09:09:48.194Z,52.30
2023-02-06T09:12:18.759Z,52.50
2023-02-06T09:14:46.351Z,52.40
2023-02-06T09:17:14.006Z,52.50
2023-02-06T09:19:43.014Z,52.70
2023-02-06T09:22:10.441Z,52.50
2023-02-06T09:24:41.228Z,52.50
2023-02-06T09:27:19.502Z,52.50
2023-02-06T09:29:50.698Z,52.60
2023-02-06T09:32:27.002Z,52.50
2023-02-06T09:34:54.686Z,52.50
2023-02-06T09:37:25.364Z,52.60
2023-02-06T09:39:53.223Z,52.60
2023-02-06T09:42:39.107Z,52.60
2023-02-06T09:45:14.194Z,51.90
2023-02-06T09:47:52.132Z,52.10
2023-02-06T09:50:34.787Z,51.80
2023-02-06T09:53:19.693Z,51.80
2023-02-06T09:56:00.609Z,52.20
2023-02-06T09:58:35.422Z,51.50
2023-02-06T10:01:32.794Z,51.90
2023-02-06T10:04:22.230Z,51.60
2023-02-06T10:07:04.871Z,51.90
2023-02-06T10:09:46.225Z,51.60
2023-02-06T10:12:28.916Z,51.70
2023-02-06T10:15:23.737Z,52.10
2023-02-06T10:17:58.524Z,51.90
2023-02-06T10:20:41.897Z,52.20
2023-02-06T10:23:23.016Z,52.30
2023-02-06T10:26:14.893Z,52.50
2023-02-06T10:28:43.579Z,52.40
2023-02-06T10:31:16.524Z,52.70
2023-02-06T10:34:09.418Z,52.90
2023-02-06T10:36:46.390Z,52.70
2023-02-06T10:39:44.191Z,53.20
2023-02-06T10:42:17.825Z,52.70
2023-02-06T10:45:22.063Z,52.80
2023-02-06T10:47:55.930Z,52.70
2023-02-06T10:50:37.343Z,52.40
2023-02-06T10:53:12.787Z,52.50
2023-02-06T10:55:55.669Z,52.40
2023-02-06T10:58:38.757Z,52.60
2023-02-06T11:01:23.923Z,51.80
2023-02-06T11:04:01.396Z,51.80
2023-02-06T11:06:30.186Z,52.10
2023-02-06T11:08:57.951Z,52.50
2023-02-06T11:11:32.301Z,52.80
2023-02-06T11:14:27.830Z,52.40
2023-02-06T11:16:57.842Z,52.90
2023-02-06T11:19:41.650Z,53.00
2023-02-06T11:22:16.858Z,52.90
2023-02-06T11:25:09.358Z,52.10
2023-02-06T11:27:44.360Z,52.40
2023-02-06T11:30:36.861Z,52.10
2023-02-06T11:33:09.206Z,51.90
2023-02-06T11:35:48.564Z,52.30
2023-02-06T11:38:24.583Z,52.20
2023-02-06T11:41:06.499Z,51.80
2023-02-06T11:43:43.002Z,52.00
2023-02-06T11:46:20.706Z,52.30
2023-02-06T11:48:55.565Z,52.10
2023-02-06T11:51:26.883Z,51.80
2023-02-06T11:54:02.606Z,52.00
2023-02-06T11:56:31.583Z,51.80
2023-02-06T11:59:16.792Z,51.30
2023-02-06T12:01:46.895Z,51.10
2023-02-06T12:04:31.518Z,50.90
2023-02-06T12:07:06.735Z,50.70
2023-02-06T12:09:34.504Z,50.80
2023-02-06T12:12:10.459Z,50.70
2023-02-06T12:14:39.990Z,50.20
2023-02-06T12:17:23.367Z,50.70
2023-02-06T12:20:01.691Z,50.50
2023-02-06T12:22:36.019Z,50.90
2023-02-06T12:25:05.407Z,50.90
2023-02-06T12:27:39.620Z,51.00
2023-02-06T12:30:34.731Z,50.90
2023-02-06T12:33:19.670Z,50.10
2023-02-06T12:35:52.396Z,50.50
2023-02-06T12:38:34.891Z,50.90
2023-02-06T12:41:27.454Z,50.90
2023-02-06T12:44:19.193Z,51.20
2023-02-06T12:46:51.469Z,51.20
2023-02-06T12:49:25.879Z,51.40
2023-02-06T12:52:17.491Z,51.60
2023-02-06T12:55:12.005Z,51.20
2023-02-06T12:57:42.825Z,50.90
2023-02-06T13:00:52.761Z,51.10
2023-02-06T13:03:45.335Z,50.80
2023-02-06T13:06:24.735Z,49.90
2023-02-06T13:09:03.201Z,50.70
2023-02-06T13:11:35.727Z,50.70
2023-02-06T13:14:18.407Z,50.50
2023-02-06T13:17:13.512Z,50.70
2023-02-06T13:19:45.719Z,50.50
2023-02-06T13:22:17.421Z,50.60
2023-02-06T13:24:47.661Z,50.50
2023-02-06T13:27:45.117Z,50.30
2023-02-06T13:30:31.156Z,50.00
2023-02-06T13:33:10.688Z,50.00
2023-02-06T13:36:03.777Z,50.10
2023-02-06T13:38:34.239Z,49.80
2023-02-06T13:41:20.197Z,49.80
2023-02-06T13:44:05.458Z,49.90
2023-02-06T13:46:56.375Z,49.80
2023-02-06T13:49:56.217Z,50.00
2023-02-06T13:52:56.229Z,49.80
2023-02-06T13:55:44.986Z,50.00
2023-02-06T13:58:31.616Z,49.40
2023-02-06T14:00:59.999Z,49.30
2023-02-06T14:03:31.610Z,49.70
2023-02-06T14:06:13.375Z,49.90
2023-02-06T14:09:08.827Z,49.80
2023-02-06T14:12:17.022Z,50.00
2023-02-06T14:14:53.222Z,48.80
2023-02-06T14:17:47.139Z,49.30
2023-02-06T14:20:22.527Z,49.40
2023-02-06T14:23:07.085Z,49.70
2023-02-06T14:25:48.215Z,49.60
2023-02-06T14:28:15.528Z,49.80
2023-02-06T14:31:19.290Z,50.10
2023-02-06T14:34:07.485Z,50.00
2023-02-06T14:36:51.182Z,50.80
2023-02-06T14:39:40.604Z,50.20
2023-02-06T14:42:16.667Z,49.70
2023-02-06T14:44:57.297Z,49.80
2023-02-06T14:47:32.527Z,49.90
2023-02-06T14:50:01.823Z,49.00
2023-02-06T14:52:34.506Z,48.80
2023-02-06T14:55:30.903Z,48.80
2023-02-06T14:57:58.357Z,48.70
2023-02-06T15:00:28.976Z,48.90
2023-02-06T15:03:14.018Z,48.70
2023-02-06T15:05:41.538Z,47.80
2023-02-06T15:08:17.754Z,48.70
2023-02-06T15:10:45.985Z,48.60
2023-02-06T15:13:24.681Z,49.00
2023-02-06T15:15:54.208Z,49.20
2023-02-06T15:18:22.020Z,49.40
2023-02-06T15:20:58.633Z,49.00
2023-02-06T15:23:44.437Z,49.30
2023-02-06T15:26:49.341Z,49.20
2023-02-06T15:29:23.211Z,49.50
2023-02-06T15:31:55.527Z,49.60
2023-02-06T15:34:26.979Z,49.80
2023-02-06T15:36:54.940Z,50.00
2023-02-06T15:39:22.530Z,49.70
2023-02-06T15:41:56.877Z,49.70
2023-02-06T15:44:35.517Z,49.50
2023-02-06T15:47:05.087Z,49.70
2023-02-06T15:49:34.919Z,49.90
2023-02-06T15:52:03.196Z,49.70
2023-02-06T15:54:30.614Z,49.90
2023-02-06T15:57:22.494Z,49.70
2023-02-06T15:59:52.491Z,49.60
2023-02-06T16:02:36.328Z,49.70
2023-02-06T16:05:06.040Z,49.50
2023-02-06T16:07:36.859Z,49.40
2023-02-06T16:10:04.633Z,49.20
2023-02-06T16:12:37.438Z,49.20
2023-02-06T16:15:30.148Z,49.20
2023-02-06T16:18:00.130Z,49.10
2023-02-06T16:20:39.396Z,49.30
2023-02-06T16:23:28.871Z,49.00
2023-02-06T16:26:11.896Z,49.00
2023-02-06T16:28:46.150Z,49.30
2023-02-06T16:31:15.453Z,49.30
2023-02-06T16:33:50.808Z,49.60
2023-02-06T16:36:20.066Z,49.60
2023-02-06T16:38:57.725Z,50.00
2023-02-06T16:41:38.442Z,50.00
2023-02-06T16:44:14.999Z,49.90
2023-02-06T16:46:42.629Z,49.80
2023-02-06T16:49:15.470Z,49.80
2023-02-06T16:51:44.977Z,50.10
2023-02-06T16:54:38.593Z,50.10
2023-02-06T16:57:21.572Z,50.40
2023-02-06T16:59:49.103Z,50.20
2023-02-06T17:02:17.361Z,50.40
2023-02-06T17:04:44.828Z,50.40
2023-02-06T17:07:16.799Z,50.70
2023-02-06T17:09:47.710Z,50.80
2023-02-06T17:12:21.114Z,50.90
2023-02-06T17:14:48.941Z,51.00
2023-02-06T17:17:19.283Z,51.10
2023-02-06T17:19:48.117Z,51.10
2023-02-06T17:22:15.906Z,51.00
2023-02-06T17:24:45.802Z,51.20
2023-02-06T17:27:16.534Z,51.20
2023-02-06T17:29:49.875Z,51.40
2023-02-06T17:32:22.318Z,51.40
2023-02-06T17:34:51.264Z,51.40
2023-02-06T17:37:20.929Z,51.60
2023-02-06T17:40:00.402Z,51.70
2023-02-06T17:42:27.995Z,51.50
2023-02-06T17:44:57.509Z,51.60
2023-02-06T17:47:25.170Z,51.80
2023-02-06T17:49:52.708Z,51.80
2023-02-06T17:52:20.569Z,52.00
2023-02-06T17:54:50.411Z,52.00
2023-02-06T17:57:18.284Z,51.90
2023-02-06T17:59:50.116Z,51.80
2023-02-06T18:02:17.421Z,52.10
2023-02-06T18:04:48.728Z,52.20
2023-02-06T18:07:16.375Z,52.30
2023-02-06T18:09:45.127Z,52.10
2023-02-06T18:12:17.076Z,52.20
2023-02-06T18:14:53.839Z,52.10
2023-02-06T18:17:21.589Z,52.10
2023-02-06T18:19:51.470Z,51.80
2023-02-06T18:22:21.318Z,51.80
2023-02-06T18:24:52.377Z,51.80
2023-02-06T18:27:26.107Z,52.00
2023-02-06T18:30:08.596Z,52.00
2023-02-06T18:32:41.051Z,52.60
2023-02-06T18:35:09.273Z,52.10
2023-02-06T18:37:39.334Z,52.10
2023-02-06T18:40:07.255Z,52.00
2023-02-06T18:42:58.536Z,52.00
2023-02-06T18:45:31.356Z,52.10
2023-02-06T18:47:58.810Z,52.30
2023-02-06T18:50:26.503Z,52.30
2023-02-06T18:52:54.032Z,52.30
2023-02-06T18:55:21.672Z,52.40
2023-02-06T18:57:49.610Z,52.60
2023-02-06T19:00:24.425Z,52.50
2023-02-06T19:02:52.170Z,52.40
2023-02-06T19:05:20.401Z,52.40
2023-02-06T19:07:54.840Z,52.40
2023-02-06T19:10:25.982Z,52.40
2023-02-06T19:13:37.724Z,52.40
2023-02-06T19:16:14.932Z,52.50
2023-02-06T19:18:47.021Z,52.40
2023-02-06T19:21:27.984Z,52.50
2023-02-06T19:23:59.783Z,52.60
2023-02-06T19:26:30.937Z,52.50
2023-02-06T19:28:58.575Z,52.60
2023-02-06T19:31:26.114Z,52.50
2023-02-06T19:33:58.647Z,52.40
2023-02-06T19:36:27.424Z,52.50
2023-02-06T19:38:59.309Z,52.50
2023-02-06T19:41:31.252Z,52.60
2023-02-06T19:44:02.530Z,52.60
2023-02-06T19:46:30.261Z,52.70
2023-02-06T19:48:57.623Z,52.60
2023-02-06T19:51:29.567Z,52.50
2023-02-06T19:53:59.210Z,52.40
2023-02-06T19:56:38.482Z,52.40
2023-02-06T19:59:14.044Z,52.50
2023-02-06T20:01:41.582Z,52.50
2023-02-06T20:04:11.094Z,52.50
2023-02-06T20:06:41.573Z,52.40
2023-02-06T20:09:17.903Z,52.40
2023-02-06T20:11:45.395Z,52.60
2023-02-06T20:14:15.886Z,52.60
2023-02-06T20:16:43.952Z,52.80
2023-02-06T20:19:21.153Z,52.70
2023-02-06T20:21:51.101Z,52.70
2023-02-06T20:24:22.014Z,53.40
2023-02-06T20:26:56.291Z,52.90
2023-02-06T20:29:33.101Z,52.80
2023-02-06T20:32:01.058Z,52.70
2023-02-06T20:34:28.739Z,52.80
2023-02-06T20:36:59.647Z,52.60
2023-02-06T20:39:28.737Z,52.40
2023-02-06T20:41:56.445Z,52.40
2023-02-06T20:44:23.943Z,52.40
2023-02-06T20:46:51.387Z,52.30
2023-02-06T20:49:26.162Z,52.40
2023-02-06T20:51:54.000Z,52.50
2023-02-06T20:54:21.883Z,52.30
2023-02-06T20:56:49.828Z,52.30
2023-02-06T20:59:20.423Z,52.30
2023-02-06T21:01:48.417Z,52.50
2023-02-06T21:04:16.780Z,52.50
2023-02-06T21:06:47.910Z,52.40
2023-02-06T21:09:15.904Z,52.30
2023-02-06T21:11:48.774Z,52.30
2023-02-06T21:14:19.313Z,52.30
2023-02-06T21:16:49.642Z,52.30
2023-02-06T21:19:19.264Z,52.30
2023-02-06T21:21:49.284Z,52.30
2023-02-06T21:24:17.462Z,52.40
2023-02-06T21:26:46.873Z,52.50
2023-02-06T21:29:15.303Z,52.40
2023-02-06T21:31:43.519Z,52.40
2023-02-06T21:34:21.796Z,52.50
2023-02-06T21:36:49.813Z,52.70
2023-02-06T21:39:21.911Z,52.50
2023-02-06T21:41:51.982Z,52.20
2023-02-06T21:44:23.962Z,52.10
2023-02-06T21:46:51.832Z,52.20
2023-02-06T21:49:21.290Z,52.20
2023-02-06T21:51:50.181Z,52.10
2023-02-06T21:54:18.094Z,52.20
2023-02-06T21:56:45.603Z,52.20
2023-02-06T21:59:13.343Z,52.30
2023-02-06T22:01:42.953Z,52.30
2023-02-06T22:04:14.699Z,52.10
2023-02-06T22:06:43.895Z,52.10
2023-02-06T22:09:15.278Z,52.30
2023-02-06T22:11:43.421Z,51.90
2023-02-06T22:14:16.402Z,52.00
2023-02-06T22:16:47.332Z,51.90
2023-02-06T22:19:15.952Z,51.90
2023-02-06T22:21:48.456Z,51.90
2023-02-06T22:24:15.862Z,51.80
2023-02-06T22:26:44.013Z,51.90
2023-02-06T22:29:16.788Z,51.80
2023-02-06T22:31:49.758Z,51.80
2023-02-06T22:34:19.779Z,51.90
2023-02-06T22:36:48.329Z,51.80
2023-02-06T22:39:15.845Z,51.80
2023-02-06T22:41:45.259Z,51.80
2023-02-06T22:44:16.262Z,51.80
2023-02-06T22:46:46.413Z,51.30
2023-02-06T22:49:16.718Z,51.80
2023-02-06T22:51:47.138Z,51.80
2023-02-06T22:54:17.412Z,51.90
2023-02-06T22:56:45.456Z,51.80
2023-02-06T22:59:17.265Z,51.90
2023-02-06T23:01:45.974Z,51.80
2023-02-06T23:04:17.970Z,52.00
2023-02-06T23:06:48.029Z,51.80
2023-02-06T23:09:27.057Z,51.70
2023-02-06T23:11:58.160Z,51.80
2023-02-06T23:14:27.042Z,51.80
2023-02-06T23:16:54.639Z,51.60
2023-02-06T23:19:22.271Z,51.60
2023-02-06T23:21:51.328Z,51.50
2023-02-06T23:24:21.732Z,51.40
2023-02-06T23:26:50.570Z,51.30
2023-02-06T23:29:23.928Z,51.30
2023-02-06T23:31:51.844Z,51.50
2023-02-06T23:34:20.093Z,51.50
2023-02-06T23:36:47.486Z,51.50
2023-02-06T23:39:15.210Z,51.60
2023-02-06T23:41:44.995Z,51.60
2023-02-06T23:44:12.558Z,51.50
2023-02-06T23:46:43.099Z,51.50
2023-02-06T23:49:12.651Z,51.40
2023-02-06T23:51:40.051Z,51.50
2023-02-06T23:54:10.779Z,51.30
2023-02-06T23:56:40.995Z,51.20
2023-02-06T23:59:08.321Z,51.10
